createdAt,value
2018-11-03T00:01:27.645Z,76.50
2018-11-03T00:03:56.127Z,62.20
2018-11-03T00:06:24.628Z,58.90
2018-11-03T00:08:53.139Z,71.60
2018-11-03T00:11:21.595Z,75.92
2018-11-03T00:13:50.124Z,69.37
2018-11-03T00:16:18.607Z,67.75
2018-11-03T00:18:47.384Z,61.07
2018-11-03T00:21:15.864Z,59.67
2018-11-03T00:23:44.406Z,61.40
2018-11-03T00:26:12.892Z,67.70
2018-11-03T00:28:41.404Z,51.00
2018-11-03T00:31:09.914Z,62.73
2018-11-03T00:33:38.397Z,52.17
2018-11-03T00:36:07.229Z,53.40
2018-11-03T00:38:35.744Z,55.20
2018-11-03T00:41:04.288Z,51.63
2018-11-03T00:43:32.756Z,53.67
2018-11-03T00:46:01.256Z,64.77
2018-11-03T00:48:29.741Z,58.10
2018-11-03T00:50:58.204Z,56.23
2018-11-03T00:53:26.672Z,53.60
2018-11-03T00:55:55.171Z,50.97
2018-11-03T00:58:23.677Z,51.57
2018-11-03T01:00:52.128Z,53.57
2018-11-03T01:03:20.675Z,52.70
2018-11-03T01:05:49.131Z,51.40
2018-11-03T01:08:17.612Z,57.50
2018-11-03T01:10:46.114Z,50.63
2018-11-03T01:13:14.571Z,41.77
2018-11-03T01:15:43.080Z,51.63
2018-11-03T01:18:11.542Z,55.47
2018-11-03T01:20:40.249Z,46.63
2018-11-03T01:23:09.028Z,47.17
2018-11-03T01:25:37.515Z,53.10
2018-11-03T01:28:06.028Z,44.65
2018-11-03T01:30:34.908Z,48.03
2018-11-03T01:33:03.397Z,53.40
2018-11-03T01:35:31.929Z,49.23
2018-11-03T01:38:00.413Z,52.50
2018-11-03T01:40:28.918Z,54.87
2018-11-03T01:42:57.429Z,62.90
2018-11-03T01:45:26.013Z,41.23
2018-11-03T01:47:54.518Z,49.80
2018-11-03T01:50:23.132Z,44.27
2018-11-03T01:52:51.608Z,44.17
2018-11-03T01:55:20.092Z,44.40
2018-11-03T01:57:48.599Z,51.73
2018-11-03T02:00:17.092Z,43.73
2018-11-03T02:02:45.579Z,50.37
2018-11-03T02:05:14.127Z,45.47
2018-11-03T02:07:42.668Z,57.13
2018-11-03T02:10:12.256Z,44.10
2018-11-03T02:12:41.007Z,45.17
2018-11-03T02:15:09.924Z,38.97
2018-11-03T02:17:38.908Z,46.73
2018-11-03T02:20:08.614Z,46.80
2018-11-03T02:22:37.512Z,43.73
2018-11-03T02:25:06.445Z,41.08
2018-11-03T02:27:34.963Z,44.83
2018-11-03T02:30:03.888Z,50.35
2018-11-03T02:32:32.641Z,46.97
2018-11-03T02:35:01.491Z,43.30
2018-11-03T02:37:29.992Z,52.67
2018-11-03T02:39:58.460Z,42.83
2018-11-03T02:42:26.959Z,45.53
2018-11-03T02:44:55.466Z,47.87
2018-11-03T02:47:24.028Z,43.03
2018-11-03T02:49:53.017Z,54.30
2018-11-03T02:52:21.496Z,42.50
2018-11-03T02:54:50.216Z,46.80
2018-11-03T02:57:18.732Z,47.00
2018-11-03T02:59:47.548Z,46.47
2018-11-03T03:02:16.065Z,50.52
2018-11-03T03:04:44.828Z,40.47
2018-11-03T03:07:13.337Z,51.17
2018-11-03T03:09:42.213Z,48.10
2018-11-03T03:12:10.704Z,46.77
2018-11-03T03:14:39.189Z,57.80
2018-11-03T03:17:07.707Z,51.35
2018-11-03T03:19:36.233Z,42.47
2018-11-03T03:22:04.783Z,57.00
2018-11-03T03:24:33.504Z,50.13
2018-11-03T03:27:01.992Z,47.00
2018-11-03T03:29:30.820Z,46.97
2018-11-03T03:31:59.207Z,53.60
2018-11-03T03:34:27.719Z,55.53
2018-11-03T03:36:56.350Z,56.97
2018-11-03T03:39:24.824Z,59.13
2018-11-03T03:41:53.339Z,55.05
2018-11-03T03:44:21.813Z,56.95
2018-11-03T03:46:50.601Z,55.27
2018-11-03T03:49:19.235Z,49.33
2018-11-03T03:51:47.720Z,45.37
2018-11-03T03:54:16.180Z,56.80
2018-11-03T03:56:44.659Z,60.60
2018-11-03T03:59:13.148Z,44.67
2018-11-03T04:01:41.915Z,51.80
2018-11-03T04:04:10.394Z,47.40
2018-11-03T04:06:38.870Z,48.10
2018-11-03T04:09:08.443Z,53.97
2018-11-03T04:14:36.079Z,46.90
2018-11-03T04:17:04.735Z,52.13
2018-11-03T04:19:33.277Z,45.78
2018-11-03T04:22:01.779Z,48.70
2018-11-03T04:24:30.338Z,47.33
2018-11-03T04:26:58.819Z,49.10
2018-11-03T04:29:27.312Z,54.23
2018-11-03T04:31:55.789Z,49.00
2018-11-03T04:34:24.292Z,49.00
2018-11-03T04:36:52.818Z,43.67
2018-11-03T04:39:21.310Z,43.87
2018-11-03T04:41:49.796Z,51.60
2018-11-03T04:44:18.292Z,40.00
2018-11-03T04:46:46.823Z,40.10
2018-11-03T04:49:15.635Z,39.00
2018-11-03T04:51:44.169Z,41.57
2018-11-03T04:54:12.702Z,33.53
2018-11-03T04:56:41.227Z,32.40
2018-11-03T04:59:12.693Z,35.20
2018-11-03T05:01:41.188Z,33.90
2018-11-03T05:04:09.683Z,32.80
2018-11-03T05:06:38.139Z,40.20
2018-11-03T05:09:09.129Z,39.90
2018-11-03T05:11:37.615Z,39.13
2018-11-03T05:14:07.379Z,42.53
2018-11-03T05:16:36.143Z,40.33
2018-11-03T05:19:04.682Z,41.73
2018-11-03T05:21:33.196Z,45.13
2018-11-03T05:24:01.746Z,42.57
2018-11-03T05:26:31.207Z,55.40
2018-11-03T05:28:59.672Z,52.73
2018-11-03T05:31:28.447Z,52.48
2018-11-03T05:33:56.967Z,50.03
2018-11-03T05:36:25.768Z,68.52
2018-11-03T05:38:54.272Z,46.23
2018-11-03T05:41:22.723Z,49.93
2018-11-03T05:43:51.236Z,52.67
2018-11-03T05:46:20.104Z,54.13
2018-11-03T05:48:48.520Z,55.77
2018-11-03T05:51:17.256Z,52.87
2018-11-03T05:53:45.955Z,51.50
2018-11-03T05:56:14.633Z,49.73
2018-11-03T05:58:43.136Z,56.50
2018-11-03T06:01:11.676Z,60.47
2018-11-03T06:03:40.177Z,52.53
2018-11-03T06:06:08.720Z,54.33
2018-11-03T06:08:37.484Z,55.60
2018-11-03T06:11:06.272Z,68.07
2018-11-03T06:13:34.737Z,66.43
2018-11-03T06:16:03.236Z,64.32
2018-11-03T06:18:31.695Z,67.77
2018-11-03T06:21:00.216Z,65.67
2018-11-03T06:23:28.757Z,66.10
2018-11-03T06:25:57.460Z,61.80
2018-11-03T06:28:25.949Z,63.00
2018-11-03T06:30:54.466Z,70.10
2018-11-03T06:33:23.115Z,60.43
2018-11-03T06:35:51.635Z,70.83
2018-11-03T06:38:20.116Z,67.80
2018-11-03T06:40:48.624Z,73.77
2018-11-03T06:43:17.110Z,61.47
2018-11-03T06:45:45.630Z,73.33
2018-11-03T06:48:14.151Z,67.87
2018-11-03T06:50:42.661Z,72.73
2018-11-03T06:53:11.151Z,65.70
2018-11-03T06:55:39.711Z,65.13
2018-11-03T06:58:08.204Z,57.85
2018-11-03T07:00:36.847Z,59.30
2018-11-03T07:03:05.860Z,67.40
2018-11-03T07:05:34.374Z,62.63
2018-11-03T07:08:03.155Z,68.83
2018-11-03T07:10:31.630Z,68.30
2018-11-03T07:13:00.150Z,63.10
2018-11-03T07:15:29.233Z,59.03
2018-11-03T07:17:57.705Z,48.30
2018-11-03T07:20:26.601Z,55.27
2018-11-03T07:22:55.075Z,57.93
2018-11-03T07:25:23.611Z,62.67
2018-11-03T07:27:52.094Z,55.73
2018-11-03T07:30:20.612Z,47.07
2018-11-03T07:32:49.112Z,55.23
2018-11-03T07:35:17.948Z,52.83
2018-11-03T07:37:46.479Z,43.00
2018-11-03T07:40:14.945Z,43.17
2018-11-03T07:42:43.575Z,42.93
2018-11-03T07:45:11.911Z,49.53
2018-11-03T07:47:40.707Z,40.40
2018-11-03T07:50:11.435Z,33.10
2018-11-03T07:52:40.274Z,35.83
2018-11-03T07:55:10.977Z,39.13
2018-11-03T07:57:39.969Z,32.90
2018-11-03T08:00:10.493Z,38.37
2018-11-03T08:02:38.966Z,33.90
2018-11-03T08:05:08.580Z,27.73
2018-11-03T08:07:37.787Z,33.42
2018-11-03T08:10:07.078Z,27.67
2018-11-03T08:12:35.535Z,28.87
2018-11-03T08:15:04.124Z,24.90
2018-11-03T08:17:32.764Z,17.67
2018-11-03T08:20:01.378Z,21.40
2018-11-03T08:22:30.048Z,21.13
2018-11-03T08:24:58.539Z,21.17
2018-11-03T08:27:27.012Z,17.70
2018-11-03T08:29:55.711Z,17.30
2018-11-03T08:32:24.286Z,16.80
2018-11-03T08:34:52.750Z,22.50
2018-11-03T08:37:21.236Z,17.00
2018-11-03T08:39:49.698Z,21.70
2018-11-03T08:42:18.280Z,20.23
2018-11-03T08:44:46.748Z,23.98
2018-11-03T08:47:15.215Z,18.20
2018-11-03T08:49:43.729Z,13.67
2018-11-03T08:52:12.215Z,19.33
2018-11-03T08:54:40.732Z,13.57
2018-11-03T08:57:09.157Z,18.10
2018-11-03T08:59:37.735Z,17.75
2018-11-03T09:02:06.438Z,17.15
2018-11-03T09:04:34.912Z,18.27
2018-11-03T09:07:03.477Z,32.10
2018-11-03T09:09:31.998Z,20.50
2018-11-03T09:12:00.486Z,17.32
2018-11-03T09:14:29.147Z,18.20
2018-11-03T09:16:57.645Z,17.57
2018-11-03T09:19:26.096Z,20.93
2018-11-03T09:21:54.651Z,22.00
2018-11-03T09:24:23.107Z,24.23
2018-11-03T09:26:51.835Z,27.27
2018-11-03T09:29:20.365Z,18.23
2018-11-03T09:31:48.921Z,21.27
2018-11-03T09:34:17.368Z,20.23
2018-11-03T09:36:45.851Z,23.30
2018-11-03T09:39:14.594Z,22.60
2018-11-03T09:41:42.820Z,22.17
2018-11-03T09:44:11.315Z,31.93
2018-11-03T09:46:39.782Z,28.30
2018-11-03T09:49:08.278Z,24.45
2018-11-03T09:51:36.760Z,24.40
2018-11-03T09:54:05.383Z,26.77
2018-11-03T09:56:34.178Z,27.87
2018-11-03T09:59:02.789Z,25.75
2018-11-03T10:01:31.275Z,26.60
2018-11-03T10:03:59.756Z,25.37
2018-11-03T10:06:28.317Z,32.53
2018-11-03T10:08:56.782Z,40.27
2018-11-03T10:11:25.293Z,25.87
2018-11-03T10:13:53.749Z,23.47
2018-11-03T10:16:22.239Z,28.43
2018-11-03T10:18:51.524Z,24.30
2018-11-03T10:21:20.038Z,26.33
2018-11-03T10:23:54.940Z,20.33
2018-11-03T10:26:23.474Z,21.87
2018-11-03T10:28:51.911Z,22.60
2018-11-03T10:31:20.415Z,23.83
2018-11-03T10:33:48.976Z,29.90
2018-11-03T10:36:17.394Z,29.05
2018-11-03T10:38:46.012Z,30.90
2018-11-03T10:41:14.557Z,29.10
2018-11-03T10:43:43.080Z,35.80
2018-11-03T10:46:11.607Z,35.33
2018-11-03T10:48:40.246Z,35.80
2018-11-03T10:51:09.237Z,32.87
2018-11-03T10:53:37.810Z,32.83
2018-11-03T10:56:07.208Z,32.77
2018-11-03T10:58:35.690Z,44.58
2018-11-03T11:01:09.472Z,32.08
2018-11-03T11:03:43.139Z,36.30
2018-11-03T11:06:16.658Z,38.97
2018-11-03T11:08:50.412Z,34.13
2018-11-03T11:11:24.176Z,50.37
2018-11-03T11:13:52.725Z,37.60
2018-11-03T11:16:21.466Z,33.43
2018-11-03T11:18:49.944Z,34.20
2018-11-03T11:21:18.449Z,33.65
2018-11-03T11:23:47.272Z,32.87
2018-11-03T11:26:15.876Z,40.00
2018-11-03T11:28:44.352Z,25.80
2018-11-03T11:31:12.889Z,37.03
2018-11-03T11:33:41.356Z,38.77
2018-11-03T11:36:09.839Z,29.18
2018-11-03T11:38:38.428Z,36.40
2018-11-03T11:41:06.846Z,33.50
2018-11-03T11:43:35.309Z,35.70
2018-11-03T11:46:03.791Z,34.83
2018-11-03T11:48:32.304Z,36.33
2018-11-03T11:51:00.796Z,28.63
2018-11-03T11:53:29.292Z,26.90
2018-11-03T11:55:57.828Z,29.23
2018-11-03T11:58:26.313Z,32.30
2018-11-03T12:00:54.768Z,34.17
2018-11-03T12:03:23.227Z,39.97
2018-11-03T12:05:52.032Z,37.33
2018-11-03T12:08:21.308Z,31.70
2018-11-03T12:10:49.824Z,37.57
2018-11-03T12:13:18.356Z,28.93
2018-11-03T12:15:46.828Z,32.90
2018-11-03T12:18:15.325Z,30.30
2018-11-03T12:20:43.767Z,39.90
2018-11-03T12:23:12.304Z,34.88
2018-11-03T12:25:40.899Z,28.53
2018-11-03T12:28:09.348Z,43.87
2018-11-03T12:30:37.864Z,34.67
2018-11-03T12:33:07.238Z,35.80
2018-11-03T12:35:35.753Z,36.17
2018-11-03T12:38:04.218Z,32.63
2018-11-03T12:40:32.731Z,31.33
2018-11-03T12:43:01.204Z,39.23
2018-11-03T12:45:29.734Z,32.77
2018-11-03T12:47:58.501Z,33.57
2018-11-03T12:50:26.956Z,28.53
2018-11-03T12:52:55.465Z,32.70
2018-11-03T12:55:24.147Z,31.97
2018-11-03T12:57:52.630Z,30.90
2018-11-03T13:00:21.124Z,35.40
2018-11-03T13:02:49.671Z,26.67
2018-11-03T13:05:18.252Z,26.77
2018-11-03T13:07:46.883Z,27.47
2018-11-03T13:10:15.331Z,38.47
2018-11-03T13:12:43.989Z,25.57
2018-11-03T13:15:13.374Z,33.57
2018-11-03T13:17:41.847Z,27.07
2018-11-03T13:20:12.096Z,32.60
2018-11-03T13:22:40.886Z,38.98
2018-11-03T13:25:10.307Z,30.30
2018-11-03T13:27:39.173Z,35.07
2018-11-03T13:30:09.350Z,35.70
2018-11-03T13:32:37.872Z,25.52
2018-11-03T13:35:07.131Z,31.43
2018-11-03T13:37:35.484Z,33.43
2018-11-03T13:40:04.017Z,29.47
2018-11-03T13:42:33.396Z,37.75
2018-11-03T13:45:02.690Z,31.40
2018-11-03T13:47:31.257Z,39.63
2018-11-03T13:49:59.704Z,34.00
2018-11-03T13:52:28.183Z,32.13
2018-11-03T13:54:56.649Z,41.87
2018-11-03T13:57:25.177Z,30.88
2018-11-03T13:59:53.628Z,34.57
2018-11-03T14:02:22.091Z,30.17
2018-11-03T14:04:50.567Z,31.63
2018-11-03T14:07:19.116Z,34.90
2018-11-03T14:09:47.567Z,32.97
2018-11-03T14:12:16.064Z,30.60
2018-11-03T14:14:44.510Z,26.40
2018-11-03T14:17:13.141Z,32.60
2018-11-03T14:19:41.499Z,31.53
2018-11-03T14:22:09.940Z,30.50
2018-11-03T14:24:38.416Z,24.87
2018-11-03T14:27:06.900Z,36.90
2018-11-03T14:29:35.568Z,33.77
2018-11-03T14:32:04.114Z,29.95
2018-11-03T14:34:32.627Z,34.80
2018-11-03T14:37:01.064Z,40.97
2018-11-03T14:39:29.580Z,32.13
2018-11-03T14:41:58.055Z,33.20
2018-11-03T14:44:26.513Z,26.07
2018-11-03T14:46:54.991Z,33.67
2018-11-03T14:49:24.279Z,30.97
2018-11-03T14:51:52.835Z,30.67
2018-11-03T14:54:21.259Z,39.03
2018-11-03T14:56:49.732Z,26.48
2018-11-03T14:59:18.546Z,30.07
2018-11-03T15:01:47.019Z,32.45
2018-11-03T15:04:15.512Z,28.67
2018-11-03T15:06:44.076Z,28.23
2018-11-03T15:09:12.842Z,28.00
2018-11-03T15:11:41.515Z,33.63
2018-11-03T15:14:10.799Z,25.23
2018-11-03T15:16:39.906Z,36.05
2018-11-03T15:19:08.837Z,23.87
2018-11-03T15:21:37.356Z,36.93
2018-11-03T15:24:05.979Z,26.87
2018-11-03T15:26:34.424Z,28.27
2018-11-03T15:29:03.253Z,36.83
2018-11-03T15:31:31.793Z,26.93
2018-11-03T15:34:00.244Z,23.17
2018-11-03T15:36:28.776Z,19.40
2018-11-03T15:38:57.283Z,17.27
2018-11-03T15:41:25.902Z,19.30
2018-11-03T15:43:54.268Z,19.23
2018-11-03T15:46:22.731Z,26.03
2018-11-03T15:48:51.205Z,31.90
2018-11-03T15:51:19.635Z,23.40
2018-11-03T15:53:48.106Z,30.90
2018-11-03T15:56:16.774Z,25.77
2018-11-03T15:58:45.243Z,25.70
2018-11-03T16:01:13.705Z,24.30
2018-11-03T16:03:42.200Z,31.20
2018-11-03T16:06:10.691Z,35.77
2018-11-03T16:08:39.169Z,31.02
2018-11-03T16:11:07.653Z,41.03
2018-11-03T16:13:36.126Z,31.85
2018-11-03T16:16:04.716Z,31.00
2018-11-03T16:18:33.189Z,35.43
2018-11-03T16:21:01.696Z,24.63
2018-11-03T16:23:30.302Z,32.77
2018-11-03T16:25:58.901Z,37.87
2018-11-03T16:28:27.369Z,30.40
2018-11-03T16:30:56.036Z,46.43
2018-11-03T16:33:24.523Z,38.08
2018-11-03T16:35:53.069Z,47.17
2018-11-03T16:38:21.561Z,42.57
2018-11-03T16:40:50.411Z,39.53
2018-11-03T16:43:18.952Z,31.80
2018-11-03T16:45:47.605Z,39.70
2018-11-03T16:48:16.101Z,25.37
2018-11-03T16:50:44.590Z,26.90
2018-11-03T16:53:13.319Z,27.00
2018-11-03T16:55:41.814Z,21.05
2018-11-03T16:58:10.296Z,37.07
2018-11-03T17:00:38.792Z,34.13
2018-11-03T17:03:07.758Z,31.27
2018-11-03T17:05:36.251Z,22.00
2018-11-03T17:08:05.253Z,29.03
2018-11-03T17:10:33.708Z,40.10
2018-11-03T17:13:02.236Z,47.43
2018-11-03T17:15:30.755Z,38.67
2018-11-03T17:17:59.235Z,33.30
2018-11-03T17:20:27.759Z,30.13
2018-11-03T17:22:56.271Z,35.43
2018-11-03T17:25:24.789Z,24.73
2018-11-03T17:27:53.267Z,22.43
2018-11-03T17:30:21.954Z,26.30
2018-11-03T17:32:50.437Z,28.47
2018-11-03T17:35:18.988Z,23.87
2018-11-03T17:37:47.488Z,34.07
2018-11-03T17:40:16.184Z,32.67
2018-11-03T17:42:45.663Z,23.77
2018-11-03T17:45:14.303Z,23.23
2018-11-03T17:47:42.823Z,26.07
2018-11-03T17:50:12.786Z,25.97
2018-11-03T17:52:41.487Z,33.60
2018-11-03T17:55:10.587Z,62.60
2018-11-03T17:57:39.213Z,54.83
2018-11-03T18:00:11.478Z,56.07
2018-11-03T18:02:40.112Z,57.20
2018-11-03T18:05:08.584Z,58.87
2018-11-03T18:07:37.151Z,56.93
2018-11-03T18:10:06.911Z,56.97
2018-11-03T18:12:35.477Z,62.40
2018-11-03T18:15:04.066Z,52.30
2018-11-03T18:17:32.564Z,49.97
2018-11-03T18:20:01.077Z,34.80
2018-11-03T18:22:29.550Z,27.40
2018-11-03T18:24:58.111Z,28.47
2018-11-03T18:27:26.548Z,19.63
2018-11-03T18:29:55.019Z,18.15
2018-11-03T18:32:23.553Z,15.70
2018-11-03T18:34:52.371Z,12.77
2018-11-03T18:37:20.899Z,16.77
2018-11-03T18:39:49.420Z,13.28
2018-11-03T18:42:17.933Z,10.20
2018-11-03T18:44:46.409Z,20.47
2018-11-03T18:47:14.875Z,9.27
2018-11-03T18:49:43.357Z,12.13
2018-11-03T18:52:12.028Z,15.45
2018-11-03T18:54:40.496Z,10.20
2018-11-03T18:57:08.946Z,11.70
2018-11-03T18:59:37.564Z,11.20
2018-11-03T19:02:06.525Z,13.72
2018-11-03T19:04:35.031Z,11.37
2018-11-03T19:07:03.528Z,25.45
2018-11-03T19:09:32.013Z,27.00
2018-11-03T19:12:00.557Z,18.62
2018-11-03T19:14:29.068Z,28.07
2018-11-03T19:16:57.523Z,23.62
2018-11-03T19:19:56.396Z,18.07
2018-11-03T19:22:24.825Z,16.60
2018-11-03T19:24:53.567Z,16.77
2018-11-03T19:27:22.343Z,18.60
2018-11-03T19:29:50.981Z,13.80
2018-11-03T19:32:19.536Z,16.10
2018-11-03T19:34:48.015Z,14.17
2018-11-03T19:37:16.509Z,18.30
2018-11-03T19:39:45.308Z,16.93
2018-11-03T19:42:14.092Z,30.80
2018-11-03T19:44:42.762Z,18.03
2018-11-03T19:47:11.239Z,18.33
2018-11-03T19:49:39.715Z,16.93
2018-11-03T19:52:08.184Z,20.60
2018-11-03T19:54:36.687Z,14.67
2018-11-03T19:57:05.360Z,13.67
2018-11-03T19:59:33.996Z,16.97
2018-11-03T20:02:02.437Z,12.70
2018-11-03T20:04:30.937Z,17.27
2018-11-03T20:06:59.395Z,16.27
2018-11-03T20:09:28.140Z,12.23
2018-11-03T20:11:56.638Z,12.13
2018-11-03T20:14:25.106Z,12.73
2018-11-03T20:16:53.543Z,10.60
2018-11-03T20:19:22.015Z,9.43
2018-11-03T20:21:50.671Z,12.80
2018-11-03T20:24:19.168Z,10.27
2018-11-03T20:26:47.875Z,7.90
2018-11-03T20:29:16.492Z,11.23
2018-11-03T20:31:44.965Z,10.33
2018-11-03T20:34:13.939Z,11.33
2018-11-03T20:36:43.018Z,9.68
2018-11-03T20:39:12.024Z,9.83
2018-11-03T20:41:40.561Z,8.77
2018-11-03T20:44:09.173Z,7.50
2018-11-03T20:46:38.295Z,8.85
2018-11-03T20:49:07.421Z,9.97
2018-11-03T20:51:35.912Z,10.80
2018-11-03T20:54:04.375Z,10.97
2018-11-03T20:56:32.884Z,10.28
2018-11-03T20:59:01.325Z,20.00
2018-11-03T21:01:29.843Z,15.83
2018-11-03T21:03:58.882Z,10.07
2018-11-03T21:06:27.380Z,9.10
2018-11-03T21:08:55.840Z,8.37
2018-11-03T21:11:24.346Z,6.87
2018-11-03T21:13:52.881Z,10.40
2018-11-03T21:16:21.485Z,12.85
2018-11-03T21:18:50.401Z,12.35
2018-11-03T21:21:18.844Z,9.43
2018-11-03T21:23:47.557Z,14.50
2018-11-03T21:26:16.285Z,16.90
2018-11-03T21:28:44.798Z,11.08
2018-11-03T21:31:13.287Z,11.73
2018-11-03T21:33:42.264Z,15.80
2018-11-03T21:36:10.774Z,19.53
2018-11-03T21:38:39.344Z,18.17
2018-11-03T21:41:08.217Z,15.40
2018-11-03T21:43:37.048Z,14.50
2018-11-03T21:46:06.491Z,14.80
2018-11-03T21:48:35.307Z,15.80
2018-11-03T21:51:03.913Z,18.63
2018-11-03T21:53:32.541Z,19.87
2018-11-03T21:56:01.149Z,22.60
2018-11-03T21:58:29.780Z,17.60
2018-11-03T22:00:58.472Z,15.93
2018-11-03T22:03:27.207Z,18.90
2018-11-03T22:05:55.899Z,18.93
2018-11-03T22:08:24.383Z,14.83
2018-11-03T22:10:52.883Z,14.13
2018-11-03T22:13:21.362Z,14.20
2018-11-03T22:15:49.898Z,11.37
2018-11-03T22:18:18.384Z,11.65
2018-11-03T22:20:46.932Z,9.00
2018-11-03T22:23:15.473Z,10.63
2018-11-03T22:25:43.959Z,8.35
2018-11-03T22:28:12.356Z,9.47
2018-11-03T22:30:40.837Z,23.63
2018-11-03T22:33:09.323Z,12.07
2018-11-03T22:35:37.792Z,13.23
2018-11-03T22:38:06.574Z,13.88
2018-11-03T22:40:35.307Z,7.03
2018-11-03T22:43:03.769Z,9.50
2018-11-03T22:45:32.242Z,6.35
2018-11-03T22:48:00.703Z,11.80
2018-11-03T22:50:29.488Z,9.95
2018-11-03T22:52:58.019Z,9.77
2018-11-03T22:55:26.582Z,13.70
2018-11-03T22:57:55.092Z,9.30
2018-11-03T23:00:23.792Z,11.43
2018-11-03T23:02:52.555Z,9.87
2018-11-03T23:05:21.011Z,13.17
2018-11-03T23:07:49.866Z,9.80
2018-11-03T23:10:18.346Z,12.37
2018-11-03T23:12:46.921Z,11.30
2018-11-03T23:15:15.391Z,12.37
2018-11-03T23:17:43.863Z,14.45
2018-11-03T23:20:13.906Z,11.80
2018-11-03T23:22:42.392Z,16.77
2018-11-03T23:25:11.115Z,12.53
2018-11-03T23:27:39.857Z,11.70
2018-11-03T23:30:10.665Z,15.27
2018-11-03T23:32:39.316Z,10.93
2018-11-03T23:35:10.109Z,18.07
2018-11-03T23:37:38.588Z,11.53
2018-11-03T23:40:08.341Z,9.60
2018-11-03T23:42:36.870Z,25.03
2018-11-03T23:45:06.363Z,12.63
2018-11-03T23:47:35.011Z,10.27
2018-11-03T23:50:03.824Z,9.23
2018-11-03T23:52:34.085Z,10.17
2018-11-03T23:55:04.577Z,9.30
2018-11-03T23:57:33.140Z,9.80
